Scroll down
FLIGHT INFORMATION
British Airways

BAW269

At Arrival Gate

EGLL
 KLAX
DATE: 2019-09-05
GATE: 534
GATE DEPARTURE: 15:14
TAKEOFF: 15:31
DATE: 2019-09-06
GATE: 132
LANDING: 02:43
GATE ARRIVAL: 02:51
FLIGHT DATA
Crew: 
Speed: 
505 kts
Altitude: 
38,024 ft
Stage Length: 
4,729.6 nm
Block Time: 
11.6 hrs
Flight Time: 
11.2 hrs
Fuel Used: 
243,934 lb
Cleared Route: EGLL D256G D261K WODNB D101H CPT KENET GAVGO MALBY DIKAS MEDOG LANON BADSI LIPGO DUB OLAPO SLG MOLAK NIBOG BEGID BILTO 5820N 6030N 6140N 6150N NIFTY MUSLO RODBO YLA YSK YPO YTL WG DIK BOY BPI TCH ILC KOPLE BOGET MEETT WATSS UPDOC KLAX
TRACK DATA
50,000 ft 1,000 kts
AIRCRAFT INFO AND CUMULATIVE STATS
Aircraft Type: 
B744
Registration: 
SELCAL: 
AKQS
MSN/LN: 
25811 / 1018
Operator: 
Total Flights: 
5
Total Block Time: 
38.2 hrs
Total Flight Time: 
36.4 hrs
Total Fuel Time: 
832,927 lb
DATALINK LOG | Newest first | Current as of: 2020-12-05 22:24:50
LABEL SEQUENCE CONTENT Dn/Up
QD510802:51 49▼ Dn
QC430302:43▼ Dn
GA3307GATE 132▲ Up
GR2936KLAX 02:35 MAAS 02 YP/UM 00/01 WCHR/S/C 03/00/00▼ Dn
2U3108KLAX 060153Z 25009KT 10SM FEW090 FEW150 24/19 A2994 RMK AO2 SLP135 T02390189▲ Up
2S2803KLAX▼ Dn
QB323415:31▼ Dn
QA155815:14 292.9▼ Dn
A31319CLEARED TO KLAX VIA CPT3F CPT UL9 GAVGO MALBY DIKAS UL18 LIPGO DUB OLAPO SLG MOLAK NIBOG BEGID BILTO 58N020W 60N030W 61N040W 61N050W NIFTY N846A MUSLO N842A RODBO YLA YSK YPO YTL WG DIK BOY J713 TCH ILC KOPLE BOGET2. SQUAWK 3670.▲ Up
B31101EGLL KLAX BAW269 G-CIVB L ▼ Dn
2U1212EGLL 051450Z AUTO 33008KT 270V020 9999 NCD 18/05 Q1027 NOSIG▲ Up
2S1026EGLL▼ Dn
A71108NOTAM WIE UFN CONF ACARS IN TIMES VIA WEB INTERFACE BEFORE SETTING INS TO OFF. ACARS LOG SHOWS QD MSG AND INFO TAB STATUS AS -AT ARR GATE-.▲ Up
Q01108[LINK ACK]▲ Up
Q00926[LINK TEST]▼ Dn


AIRCRAFT HISTORY
FLIGHT DATE FLIGHT NO. ORIGIN DESTINATION CLEARED ROUTE BLOCK TIME FLIGHT TIME FUEL USED PILOT
2020-08-02BAW8022KJFK KBOS KJFK MERIT KBOS1.2 hrs0.8 hrs24,557 lbKevin Hall
2019-09-11BAW175EGLL KJFK EGLL D256G D261K WODNB D101H CPT KENET GAVGO DIKAS STU SLANY MALOT 5330N 5240N 5050N ELSIR TUSKY PLYMM PVD TRAIT PARCH CCC ROBER CRAIL CAPIT KJFK7.8 hrs7.3 hrs172,495 lbKyle Rodgers
2019-09-06BAW268KLAX EGLL KLAX DLREY KLIPR KEGGS COOPP ORCKA NNAVY BLAZN LAS BAWER LARVE EKR RWF SSM VBS BAREE RIKAL 5350N 5540N 5530N 5420N MALOT GISTI SLANY STU NUMPO OKESI BEDEK NIGIT LLW03 OCK EGLL9.8 hrs9.5 hrs214,833 lbKyle Rodgers
2019-09-05BAW269EGLL KLAX EGLL D256G D261K WODNB D101H CPT KENET GAVGO MALBY DIKAS MEDOG LANON BADSI LIPGO DUB OLAPO SLG MOLAK NIBOG BEGID BILTO 5820N 6030N 6140N 6150N NIFTY MUSLO RODBO YLA YSK YPO YTL WG DIK BOY BPI TCH ILC KOPLE BOGET MEETT WATSS UPDOC KLAX11.6 hrs11.2 hrs243,934 lbKyle Rodgers
2019-09-05BAW218KDEN EGLL KDEN GISTT KIDNG GINTH SPYCE TURBN CHICN KKIMM BRYCC TAYOT KP87A ABR YQT YMO JOVIE DORYY 5750N 5740N 5730N 5720N PIKIL SOVED LUTOV KELLY CASEL PENIL WAL EKLAD MOGTA NANTI NUGRA TOBID SOPIT WCONB BNN EGLL7.9 hrs7.6 hrs177,107 lbKyle Rodgers